sensor_id;sensor_type;location;lat;lon;timestamp;pressure;altitude;pressure_sealevel;temperature;humidity
60874;BME280;46715;40.642;-7.920;2022-10-31T00:00:08;96132.56;;;13.40;100.00
60874;BME280;46715;40.642;-7.920;2022-10-31T00:02:11;96116.63;;;13.37;100.00
60874;BME280;46715;40.642;-7.920;2022-10-31T00:04:12;96115.66;;;13.33;100.00
60874;BME280;46715;40.642;-7.920;2022-10-31T00:06:13;96132.19;;;13.28;100.00
60874;BME280;46715;40.642;-7.920;2022-10-31T00:08:15;96139.56;;;13.26;100.00
60874;BME280;46715;40.642;-7.920;2022-10-31T00:10:16;96129.59;;;13.28;100.00
60874;BME280;46715;40.642;-7.920;2022-10-31T00:12:17;96122.78;;;13.27;100.00
60874;BME280;46715;40.642;-7.920;2022-10-31T00:14:17;96137.44;;;13.28;100.00
60874;BME280;46715;40.642;-7.920;2022-10-31T00:16:24;96131.72;;;13.26;100.00
60874;BME280;46715;40.642;-7.920;2022-10-31T00:18:26;96118.81;;;13.29;100.00
60874;BME280;46715;40.642;-7.920;2022-10-31T00:20:27;96115.22;;;13.25;100.00
60874;BME280;46715;40.642;-7.920;2022-10-31T00:22:28;96120.16;;;13.27;100.00
60874;BME280;46715;40.642;-7.920;2022-10-31T00:24:29;96115.13;;;13.30;100.00
60874;BME280;46715;40.642;-7.920;2022-10-31T00:26:30;96126.59;;;13.35;100.00
60874;BME280;46715;40.642;-7.920;2022-10-31T00:28:32;96116.63;;;13.37;100.00
60874;BME280;46715;40.642;-7.920;2022-10-31T00:30:33;96118.97;;;13.38;100.00
60874;BME280;46715;40.642;-7.920;2022-10-31T00:32:34;96110.84;;;13.40;100.00
60874;BME280;46715;40.642;-7.920;2022-10-31T00:34:35;96113.94;;;13.42;100.00
60874;BME280;46715;40.642;-7.920;2022-10-31T00:36:36;96110.53;;;13.41;100.00
60874;BME280;46715;40.642;-7.920;2022-10-31T00:38:36;96117.06;;;13.44;100.00
60874;BME280;46715;40.642;-7.920;2022-10-31T00:40:37;96110.84;;;13.40;100.00
60874;BME280;46715;40.642;-7.920;2022-10-31T00:42:40;96115.28;;;13.39;100.00
60874;BME280;46715;40.642;-7.920;2022-10-31T00:44:41;96111.31;;;13.42;100.00
60874;BME280;46715;40.642;-7.920;2022-10-31T00:46:43;96120.22;;;13.41;100.00
60874;BME280;46715;40.642;-7.920;2022-10-31T00:48:43;96124.13;;;13.43;100.00
60874;BME280;46715;40.642;-7.920;2022-10-31T00:50:45;96119.97;;;13.42;100.00
60874;BME280;46715;40.642;-7.920;2022-10-31T00:52:45;96123.63;;;13.41;100.00
60874;BME280;46715;40.642;-7.920;2022-10-31T00:54:47;96118.69;;;13.40;100.00
60874;BME280;46715;40.642;-7.920;2022-10-31T00:56:47;96128.38;;;13.39;100.00
60874;BME280;46715;40.642;-7.920;2022-10-31T00:58:48;96121.72;;;13.47;100.00
60874;BME280;46715;40.642;-7.920;2022-10-31T01:00:49;96122.75;;;13.46;100.00
60874;BME280;46715;40.642;-7.920;2022-10-31T01:02:56;96123.56;;;13.46;100.00
60874;BME280;46715;40.642;-7.920;2022-10-31T01:04:57;96125.59;;;13.50;100.00
60874;BME280;46715;40.642;-7.920;2022-10-31T01:06:58;96122.97;;;13.50;100.00
60874;BME280;46715;40.642;-7.920;2022-10-31T01:08:58;96122.19;;;13.49;100.00
60874;BME280;46715;40.642;-7.920;2022-10-31T01:13:06;96126.56;;;13.54;100.00
60874;BME280;46715;40.642;-7.920;2022-10-31T01:15:09;96124.53;;;13.51;100.00
60874;BME280;46715;40.642;-7.920;2022-10-31T01:17:11;96122.47;;;13.47;100.00
60874;BME280;46715;40.642;-7.920;2022-10-31T01:19:12;96120.44;;;13.44;100.00
60874;BME280;46715;40.642;-7.920;2022-10-31T01:21:21;96113.94;;;13.42;100.00
60874;BME280;46715;40.642;-7.920;2022-10-31T01:23:23;96111.13;;;13.38;100.00
60874;BME280;46715;40.642;-7.920;2022-10-31T01:25:23;96113.16;;;13.41;100.00
60874;BME280;46715;40.642;-7.920;2022-10-31T01:27:25;96106.66;;;13.39;100.00
60874;BME280;46715;40.642;-7.920;2022-10-31T01:29:25;96099.63;;;13.34;100.00
60874;BME280;46715;40.642;-7.920;2022-10-31T01:31:30;96100.41;;;13.35;100.00
60874;BME280;46715;40.642;-7.920;2022-10-31T01:33:31;96095.47;;;13.33;100.00
60874;BME280;46715;40.642;-7.920;2022-10-31T01:35:32;96104.88;;;13.34;100.00
60874;BME280;46715;40.642;-7.920;2022-10-31T01:37:32;96101.41;;;13.39;100.00
60874;BME280;46715;40.642;-7.920;2022-10-31T01:39:33;96094.41;;;13.34;100.00
60874;BME280;46715;40.642;-7.920;2022-10-31T01:41:37;96092.56;;;13.35;100.00
60874;BME280;46715;40.642;-7.920;2022-10-31T01:46:17;96081.69;;;13.27;100.00
60874;BME280;46715;40.642;-7.920;2022-10-31T01:48:23;96089.31;;;13.24;100.00
60874;BME280;46715;40.642;-7.920;2022-10-31T01:50:34;96088.06;;;13.21;100.00
60874;BME280;46715;40.642;-7.920;2022-10-31T01:52:47;96081.28;;;13.20;100.00
60874;BME280;46715;40.642;-7.920;2022-10-31T01:54:57;96073.72;;;13.19;100.00
60874;BME280;46715;40.642;-7.920;2022-10-31T01:56:59;96084.66;;;13.21;100.00
60874;BME280;46715;40.642;-7.920;2022-10-31T01:59:01;96073.44;;;13.20;100.00
60874;BME280;46715;40.642;-7.920;2022-10-31T02:01:05;96078.38;;;13.22;100.00
60874;BME280;46715;40.642;-7.920;2022-10-31T02:03:06;96073.91;;;13.22;100.00
60874;BME280;46715;40.642;-7.920;2022-10-31T02:05:10;96069.19;;;13.24;100.00
60874;BME280;46715;40.642;-7.920;2022-10-31T02:07:25;96077.50;;;13.26;100.00
60874;BME280;46715;40.642;-7.920;2022-10-31T02:09:30;96078.28;;;13.27;100.00
60874;BME280;46715;40.642;-7.920;2022-10-31T02:11:33;96076.38;;;13.33;100.00
60874;BME280;46715;40.642;-7.920;2022-10-31T02:13:35;96065.69;;;13.29;100.00
60874;BME280;46715;40.642;-7.920;2022-10-31T02:15:40;96065.34;;;13.36;100.00
60874;BME280;46715;40.642;-7.920;2022-10-31T02:17:44;96062.97;;;13.34;100.00
60874;BME280;46715;40.642;-7.920;2022-10-31T02:19:54;96061.22;;;13.29;100.00
60874;BME280;46715;40.642;-7.920;2022-10-31T02:22:04;96051.53;;;13.30;100.00
60874;BME280;46715;40.642;-7.920;2022-10-31T02:26:37;96053.56;;;13.33;100.00
60874;BME280;46715;40.642;-7.920;2022-10-31T02:37:57;96041.81;;;13.30;100.00
60874;BME280;46715;40.642;-7.920;2022-10-31T02:40:25;96046.75;;;13.32;100.00
60874;BME280;46715;40.642;-7.920;2022-10-31T02:45:22;96054.16;;;13.30;100.00
60874;BME280;46715;40.642;-7.920;2022-10-31T02:47:29;96052.00;;;13.32;100.00
60874;BME280;46715;40.642;-7.920;2022-10-31T02:51:45;96050.44;;;13.31;100.00
60874;BME280;46715;40.642;-7.920;2022-10-31T02:53:46;96050.25;;;13.27;100.00
60874;BME280;46715;40.642;-7.920;2022-10-31T02:55:51;96058.50;;;13.35;100.00
60874;BME280;46715;40.642;-7.920;2022-10-31T02:58:05;96059.56;;;13.34;100.00
60874;BME280;46715;40.642;-7.920;2022-10-31T03:00:08;96065.34;;;13.36;100.00
60874;BME280;46715;40.642;-7.920;2022-10-31T03:02:26;96073.38;;;13.39;100.00
60874;BME280;46715;40.642;-7.920;2022-10-31T03:07:03;96055.84;;;13.40;100.00
60874;BME280;46715;40.642;-7.920;2022-10-31T03:11:13;96052.72;;;13.38;100.00
60874;BME280;46715;40.642;-7.920;2022-10-31T03:15:27;96037.78;;;13.38;100.00
60874;BME280;46715;40.642;-7.920;2022-10-31T03:19:58;96003.47;;;13.54;100.00
60874;BME280;46715;40.642;-7.920;2022-10-31T03:22:20;96002.09;;;13.56;100.00
60874;BME280;46715;40.642;-7.920;2022-10-31T03:24:27;96001.13;;;13.66;100.00
60874;BME280;46715;40.642;-7.920;2022-10-31T03:26:32;95997.63;;;13.71;100.00
60874;BME280;46715;40.642;-7.920;2022-10-31T03:28:58;95997.84;;;13.60;100.00
60874;BME280;46715;40.642;-7.920;2022-10-31T03:30:58;95982.00;;;13.52;100.00
60874;BME280;46715;40.642;-7.920;2022-10-31T03:33:05;95979.38;;;13.38;100.00
60874;BME280;46715;40.642;-7.920;2022-10-31T03:35:14;95976.56;;;13.34;100.00
60874;BME280;46715;40.642;-7.920;2022-10-31T03:37:19;95965.69;;;13.27;100.00
60874;BME280;46715;40.642;-7.920;2022-10-31T03:39:22;95971.44;;;13.43;100.00
60874;BME280;46715;40.642;-7.920;2022-10-31T03:41:28;95963.19;;;13.50;100.00
60874;BME280;46715;40.642;-7.920;2022-10-31T03:43:35;95973.00;;;13.44;100.00
60874;BME280;46715;40.642;-7.920;2022-10-31T03:45:41;95973.94;;;13.34;100.00
60874;BME280;46715;40.642;-7.920;2022-10-31T03:47:43;95964.16;;;13.26;100.00
60874;BME280;46715;40.642;-7.920;2022-10-31T03:49:45;95976.28;;;13.22;100.00
60874;BME280;46715;40.642;-7.920;2022-10-31T03:51:56;95969.38;;;13.26;100.00
60874;BME280;46715;40.642;-7.920;2022-10-31T03:56:36;95957.56;;;13.28;100.00
60874;BME280;46715;40.642;-7.920;2022-10-31T03:58:44;95957.25;;;13.30;100.00
60874;BME280;46715;40.642;-7.920;2022-10-31T04:00:48;95956.59;;;13.24;100.00
60874;BME280;46715;40.642;-7.920;2022-10-31T04:03:00;95942.41;;;13.25;100.00
60874;BME280;46715;40.642;-7.920;2022-10-31T04:05:07;95941.84;;;13.15;100.00
60874;BME280;46715;40.642;-7.920;2022-10-31T04:07:10;95942.03;;;13.18;100.00
60874;BME280;46715;40.642;-7.920;2022-10-31T04:09:13;95940.75;;;13.16;100.00
60874;BME280;46715;40.642;-7.920;2022-10-31T04:11:16;95949.13;;;13.18;100.00
60874;BME280;46715;40.642;-7.920;2022-10-31T04:13:28;95951.81;;;13.12;100.00
60874;BME280;46715;40.642;-7.920;2022-10-31T04:15:38;95960.44;;;13.13;100.00
60874;BME280;46715;40.642;-7.920;2022-10-31T04:17:41;95964.16;;;13.12;100.00
60874;BME280;46715;40.642;-7.920;2022-10-31T04:19:44;95948.53;;;13.07;100.00
60874;BME280;46715;40.642;-7.920;2022-10-31T04:21:46;95945.03;;;13.11;100.00
60874;BME280;46715;40.642;-7.920;2022-10-31T04:23:47;95943.97;;;13.12;100.00
60874;BME280;46715;40.642;-7.920;2022-10-31T04:25:53;95952.31;;;13.15;100.00
60874;BME280;46715;40.642;-7.920;2022-10-31T04:27:54;95964.81;;;13.18;100.00
60874;BME280;46715;40.642;-7.920;2022-10-31T04:29:57;95957.44;;;13.20;100.00
60874;BME280;46715;40.642;-7.920;2022-10-31T04:31:58;95955.63;;;13.20;100.00
60874;BME280;46715;40.642;-7.920;2022-10-31T04:33:59;95947.47;;;13.22;100.00
60874;BME280;46715;40.642;-7.920;2022-10-31T04:36:00;95947.75;;;13.20;100.00
60874;BME280;46715;40.642;-7.920;2022-10-31T04:38:01;95944.84;;;13.22;100.00
60874;BME280;46715;40.642;-7.920;2022-10-31T04:40:03;95953.09;;;13.29;100.00
60874;BME280;46715;40.642;-7.920;2022-10-31T04:42:16;95947.09;;;13.28;100.00
60874;BME280;46715;40.642;-7.920;2022-10-31T04:44:18;95946.78;;;13.30;100.00
60874;BME280;46715;40.642;-7.920;2022-10-31T04:46:24;95945.22;;;13.29;100.00
60874;BME280;46715;40.642;-7.920;2022-10-31T04:48:24;95944.28;;;13.39;100.00
60874;BME280;46715;40.642;-7.920;2022-10-31T04:50:25;95946.88;;;13.53;100.00
60874;BME280;46715;40.642;-7.920;2022-10-31T04:52:26;95955.44;;;13.44;100.00
60874;BME280;46715;40.642;-7.920;2022-10-31T04:54:27;95956.03;;;13.41;100.00
60874;BME280;46715;40.642;-7.920;2022-10-31T04:56:57;95965.69;;;13.41;100.00
60874;BME280;46715;40.642;-7.920;2022-10-31T04:58:58;95956.88;;;13.37;100.00
60874;BME280;46715;40.642;-7.920;2022-10-31T05:01:02;95967.25;;;13.42;100.00
60874;BME280;46715;40.642;-7.920;2022-10-31T05:03:02;95966.97;;;13.43;100.00
60874;BME280;46715;40.642;-7.920;2022-10-31T05:05:03;95969.13;;;13.41;100.00
60874;BME280;46715;40.642;-7.920;2022-10-31T05:07:07;95971.91;;;13.45;100.00
60874;BME280;46715;40.642;-7.920;2022-10-31T05:09:07;95976.69;;;13.43;100.00
60874;BME280;46715;40.642;-7.920;2022-10-31T05:11:08;95994.81;;;13.39;100.00
60874;BME280;46715;40.642;-7.920;2022-10-31T05:13:09;96016.44;;;13.45;100.00
60874;BME280;46715;40.642;-7.920;2022-10-31T05:15:33;96023.53;;;13.58;100.00
60874;BME280;46715;40.642;-7.920;2022-10-31T05:17:53;96014.31;;;13.47;100.00
60874;BME280;46715;40.642;-7.920;2022-10-31T05:20:19;96007.72;;;13.50;100.00
60874;BME280;46715;40.642;-7.920;2022-10-31T05:22:20;96001.50;;;13.45;100.00
60874;BME280;46715;40.642;-7.920;2022-10-31T05:24:21;95995.09;;;13.38;100.00
60874;BME280;46715;40.642;-7.920;2022-10-31T05:26:22;95985.47;;;13.33;100.00
60874;BME280;46715;40.642;-7.920;2022-10-31T05:28:23;95986.38;;;13.42;100.00
60874;BME280;46715;40.642;-7.920;2022-10-31T05:30:27;95979.69;;;13.36;100.00
60874;BME280;46715;40.642;-7.920;2022-10-31T05:32:28;95964.53;;;13.33;100.00
60874;BME280;46715;40.642;-7.920;2022-10-31T05:34:56;95955.13;;;13.32;100.00
60874;BME280;46715;40.642;-7.920;2022-10-31T05:37:17;95940.69;;;13.49;100.00
60874;BME280;46715;40.642;-7.920;2022-10-31T05:39:19;95940.28;;;13.55;100.00
60874;BME280;46715;40.642;-7.920;2022-10-31T05:41:23;95933.03;;;13.52;100.00
60874;BME280;46715;40.642;-7.920;2022-10-31T05:43:24;95938.06;;;13.49;100.00
60874;BME280;46715;40.642;-7.920;2022-10-31T05:45:26;95940.00;;;13.43;100.00
60874;BME280;46715;40.642;-7.920;2022-10-31T05:47:32;95959.41;;;13.42;100.00
60874;BME280;46715;40.642;-7.920;2022-10-31T05:49:53;95957.69;;;13.37;100.00
60874;BME280;46715;40.642;-7.920;2022-10-31T05:52:08;95962.91;;;13.37;100.00
60874;BME280;46715;40.642;-7.920;2022-10-31T05:54:23;95967.09;;;13.38;100.00
60874;BME280;46715;40.642;-7.920;2022-10-31T05:56:24;95967.34;;;13.37;100.00
60874;BME280;46715;40.642;-7.920;2022-10-31T05:58:26;95975.22;;;13.37;100.00
60874;BME280;46715;40.642;-7.920;2022-10-31T06:00:39;95974.16;;;13.38;100.00
60874;BME280;46715;40.642;-7.920;2022-10-31T06:02:42;95978.31;;;13.39;100.00
60874;BME280;46715;40.642;-7.920;2022-10-31T06:04:49;95987.81;;;13.35;100.00
60874;BME280;46715;40.642;-7.920;2022-10-31T06:06:51;95985.19;;;13.35;100.00
60874;BME280;46715;40.642;-7.920;2022-10-31T06:08:52;95982.84;;;13.33;100.00
60874;BME280;46715;40.642;-7.920;2022-10-31T06:10:56;95977.91;;;13.32;100.00
60874;BME280;46715;40.642;-7.920;2022-10-31T06:13:16;95966.38;;;13.33;100.00
60874;BME280;46715;40.642;-7.920;2022-10-31T06:15:21;95961.63;;;13.35;100.00
60874;BME280;46715;40.642;-7.920;2022-10-31T06:17:23;95964.47;;;13.38;100.00
60874;BME280;46715;40.642;-7.920;2022-10-31T06:19:43;95967.56;;;13.40;100.00
60874;BME280;46715;40.642;-7.920;2022-10-31T06:21:48;95948.53;;;13.49;100.00
60874;BME280;46715;40.642;-7.920;2022-10-31T06:23:50;95950.69;;;13.60;100.00
60874;BME280;46715;40.642;-7.920;2022-10-31T06:26:14;95952.88;;;13.53;100.00
60874;BME280;46715;40.642;-7.920;2022-10-31T06:28:15;95950.88;;;13.50;100.00
60874;BME280;46715;40.642;-7.920;2022-10-31T06:30:43;95959.41;;;13.42;100.00
60874;BME280;46715;40.642;-7.920;2022-10-31T06:32:45;95956.78;;;13.42;100.00
60874;BME280;46715;40.642;-7.920;2022-10-31T06:34:46;95957.09;;;13.40;100.00
60874;BME280;46715;40.642;-7.920;2022-10-31T06:36:49;95962.81;;;13.42;100.00
60874;BME280;46715;40.642;-7.920;2022-10-31T06:38:52;95969.78;;;13.47;100.00
60874;BME280;46715;40.642;-7.920;2022-10-31T06:40:56;95960.38;;;13.46;100.00
60874;BME280;46715;40.642;-7.920;2022-10-31T06:43:00;95972.13;;;13.49;100.00
60874;BME280;46715;40.642;-7.920;2022-10-31T06:45:02;95980.47;;;13.51;100.00
60874;BME280;46715;40.642;-7.920;2022-10-31T06:47:21;95982.78;;;13.52;100.00
60874;BME280;46715;40.642;-7.920;2022-10-31T06:49:37;95979.97;;;13.49;100.00
60874;BME280;46715;40.642;-7.920;2022-10-31T06:51:47;95984.81;;;13.55;100.00
60874;BME280;46715;40.642;-7.920;2022-10-31T06:53:48;95992.47;;;13.52;100.00
60874;BME280;46715;40.642;-7.920;2022-10-31T06:55:50;95984.44;;;13.48;100.00
60874;BME280;46715;40.642;-7.920;2022-10-31T06:57:56;95988.03;;;13.52;100.00
60874;BME280;46715;40.642;-7.920;2022-10-31T06:59:57;95996.28;;;13.59;100.00
60874;BME280;46715;40.642;-7.920;2022-10-31T07:02:16;96004.03;;;13.64;100.00
60874;BME280;46715;40.642;-7.920;2022-10-31T07:04:17;95991.63;;;13.56;100.00
60874;BME280;46715;40.642;-7.920;2022-10-31T07:06:18;95998.00;;;13.64;100.00
60874;BME280;46715;40.642;-7.920;2022-10-31T07:08:20;95994.03;;;13.67;100.00
60874;BME280;46715;40.642;-7.920;2022-10-31T07:10:22;95989.97;;;13.60;100.00
60874;BME280;46715;40.642;-7.920;2022-10-31T07:12:32;95981.69;;;13.67;100.00
60874;BME280;46715;40.642;-7.920;2022-10-31T07:14:33;95984.13;;;13.63;100.00
60874;BME280;46715;40.642;-7.920;2022-10-31T07:16:35;95983.63;;;13.61;100.00
60874;BME280;46715;40.642;-7.920;2022-10-31T07:18:37;95982.88;;;13.61;100.00
60874;BME280;46715;40.642;-7.920;2022-10-31T07:20:39;95992.47;;;13.66;100.00
60874;BME280;46715;40.642;-7.920;2022-10-31T07:22:40;96011.91;;;13.64;100.00
60874;BME280;46715;40.642;-7.920;2022-10-31T07:24:42;96023.16;;;13.65;100.00
60874;BME280;46715;40.642;-7.920;2022-10-31T07:27:03;96021.00;;;13.67;100.00
60874;BME280;46715;40.642;-7.920;2022-10-31T07:29:04;96018.38;;;13.67;100.00
60874;BME280;46715;40.642;-7.920;2022-10-31T07:31:05;95998.00;;;13.64;100.00
60874;BME280;46715;40.642;-7.920;2022-10-31T07:33:06;96004.41;;;13.72;100.00
60874;BME280;46715;40.642;-7.920;2022-10-31T07:35:28;95988.78;;;13.67;100.00
60874;BME280;46715;40.642;-7.920;2022-10-31T07:37:33;95990.66;;;13.66;100.00
60874;BME280;46715;40.642;-7.920;2022-10-31T07:39:34;96000.91;;;13.62;100.00
60874;BME280;46715;40.642;-7.920;2022-10-31T07:41:34;95998.81;;;13.64;100.00
60874;BME280;46715;40.642;-7.920;2022-10-31T07:43:37;95994.09;;;13.75;100.00
60874;BME280;46715;40.642;-7.920;2022-10-31T07:46:00;96013.81;;;13.73;100.00
60874;BME280;46715;40.642;-7.920;2022-10-31T07:48:24;96021.66;;;13.73;100.00
60874;BME280;46715;40.642;-7.920;2022-10-31T07:50:43;96006.53;;;13.70;100.00
60874;BME280;46715;40.642;-7.920;2022-10-31T07:53:14;95994.50;;;13.69;100.00
60874;BME280;46715;40.642;-7.920;2022-10-31T07:55:15;95987.59;;;13.73;100.00
60874;BME280;46715;40.642;-7.920;2022-10-31T07:57:20;95969.09;;;13.69;100.00
60874;BME280;46715;40.642;-7.920;2022-10-31T07:59:22;95982.97;;;13.70;100.00
60874;BME280;46715;40.642;-7.920;2022-10-31T08:01:22;96000.81;;;13.68;100.00
60874;BME280;46715;40.642;-7.920;2022-10-31T08:03:43;95994.50;;;13.69;100.00
60874;BME280;46715;40.642;-7.920;2022-10-31T08:05:44;95994.03;;;13.67;100.00
60874;BME280;46715;40.642;-7.920;2022-10-31T08:08:06;95991.19;;;13.77;100.00
60874;BME280;46715;40.642;-7.920;2022-10-31T08:10:07;95988.41;;;13.73;100.00
60874;BME280;46715;40.642;-7.920;2022-10-31T08:12:09;95986.16;;;13.80;100.00
60874;BME280;46715;40.642;-7.920;2022-10-31T08:14:10;95974.91;;;13.80;100.00
60874;BME280;46715;40.642;-7.920;2022-10-31T08:16:11;95985.25;;;13.85;100.00
60874;BME280;46715;40.642;-7.920;2022-10-31T08:18:19;95974.22;;;13.88;100.00
60874;BME280;46715;40.642;-7.920;2022-10-31T08:20:23;95978.06;;;13.91;100.00
60874;BME280;46715;40.642;-7.920;2022-10-31T08:22:24;95984.25;;;13.95;100.00
60874;BME280;46715;40.642;-7.920;2022-10-31T08:24:25;95979.25;;;13.85;100.00
60874;BME280;46715;40.642;-7.920;2022-10-31T08:26:26;95985.66;;;13.92;100.00
60874;BME280;46715;40.642;-7.920;2022-10-31T08:28:30;95984.97;;;13.87;100.00
60874;BME280;46715;40.642;-7.920;2022-10-31T08:30:33;95990.09;;;13.92;100.00
60874;BME280;46715;40.642;-7.920;2022-10-31T08:33:09;95999.91;;;14.00;100.00
60874;BME280;46715;40.642;-7.920;2022-10-31T08:35:31;96009.78;;;14.03;100.00
60874;BME280;46715;40.642;-7.920;2022-10-31T08:37:56;96016.69;;;13.99;100.00
60874;BME280;46715;40.642;-7.920;2022-10-31T08:39:59;96032.25;;;13.95;100.00
60874;BME280;46715;40.642;-7.920;2022-10-31T08:42:00;96028.94;;;13.90;100.00
60874;BME280;46715;40.642;-7.920;2022-10-31T08:44:02;96039.88;;;14.06;100.00
60874;BME280;46715;40.642;-7.920;2022-10-31T08:46:03;96040.94;;;14.05;100.00
60874;BME280;46715;40.642;-7.920;2022-10-31T08:48:10;96039.41;;;14.04;100.00
60874;BME280;46715;40.642;-7.920;2022-10-31T08:50:11;96030.47;;;14.05;100.00
60874;BME280;46715;40.642;-7.920;2022-10-31T08:52:13;96038.63;;;14.03;100.00
60874;BME280;46715;40.642;-7.920;2022-10-31T08:54:17;96040.00;;;14.01;100.00
60874;BME280;46715;40.642;-7.920;2022-10-31T08:56:30;96041.09;;;13.86;100.00
60874;BME280;46715;40.642;-7.920;2022-10-31T08:58:31;96044.97;;;13.74;100.00
60874;BME280;46715;40.642;-7.920;2022-10-31T09:00:36;96060.72;;;13.74;100.00
60874;BME280;46715;40.642;-7.920;2022-10-31T09:02:46;96072.41;;;13.77;100.00
60874;BME280;46715;40.642;-7.920;2022-10-31T09:04:54;96055.47;;;13.74;100.00
60874;BME280;46715;40.642;-7.920;2022-10-31T09:06:54;96051.19;;;13.78;100.00
60874;BME280;46715;40.642;-7.920;2022-10-31T09:08:55;96054.88;;;13.91;100.00
60874;BME280;46715;40.642;-7.920;2022-10-31T09:10:59;96056.03;;;13.85;100.00
60874;BME280;46715;40.642;-7.920;2022-10-31T09:13:38;96060.09;;;13.91;100.00
60874;BME280;46715;40.642;-7.920;2022-10-31T09:16:11;96059.50;;;13.94;100.00
60874;BME280;46715;40.642;-7.920;2022-10-31T09:18:14;96051.19;;;13.92;100.00
60874;BME280;46715;40.642;-7.920;2022-10-31T09:20:23;96066.69;;;14.03;100.00
60874;BME280;46715;40.642;-7.920;2022-10-31T09:22:24;96073.28;;;14.00;100.00
60874;BME280;46715;40.642;-7.920;2022-10-31T09:24:25;96073.78;;;14.02;100.00
60874;BME280;46715;40.642;-7.920;2022-10-31T09:26:27;96068.44;;;14.07;100.00
60874;BME280;46715;40.642;-7.920;2022-10-31T09:29:00;96088.31;;;14.22;100.00
60874;BME280;46715;40.642;-7.920;2022-10-31T09:31:04;96085.09;;;14.25;100.00
60874;BME280;46715;40.642;-7.920;2022-10-31T09:33:23;96095.13;;;14.23;100.00
60874;BME280;46715;40.642;-7.920;2022-10-31T09:35:40;96087.91;;;14.29;100.00
60874;BME280;46715;40.642;-7.920;2022-10-31T09:37:41;96085.91;;;14.26;100.00
60874;BME280;46715;40.642;-7.920;2022-10-31T09:39:42;96085.69;;;14.22;100.00
60874;BME280;46715;40.642;-7.920;2022-10-31T09:47:15;96095.19;;;14.32;100.00
60874;BME280;46715;40.642;-7.920;2022-10-31T09:52:29;96089.38;;;14.21;100.00
60874;BME280;46715;40.642;-7.920;2022-10-31T09:54:55;96086.19;;;14.24;100.00
60874;BME280;46715;40.642;-7.920;2022-10-31T09:56:59;96088.81;;;14.24;100.00
60874;BME280;46715;40.642;-7.920;2022-10-31T09:59:05;96080.66;;;14.26;100.00
60874;BME280;46715;40.642;-7.920;2022-10-31T10:03:37;96072.66;;;14.31;100.00
60874;BME280;46715;40.642;-7.920;2022-10-31T10:06:18;96088.97;;;14.28;100.00
60874;BME280;46715;40.642;-7.920;2022-10-31T10:08:41;96086.00;;;14.21;100.00
60874;BME280;46715;40.642;-7.920;2022-10-31T10:14:13;96082.47;;;14.25;100.00
60874;BME280;46715;40.642;-7.920;2022-10-31T10:23:08;96085.09;;;14.25;100.00
60874;BME280;46715;40.642;-7.920;2022-10-31T10:25:39;96096.16;;;14.36;100.00
60874;BME280;46715;40.642;-7.920;2022-10-31T10:32:08;96078.91;;;14.58;100.00
60874;BME280;46715;40.642;-7.920;2022-10-31T10:34:27;96095.22;;;14.69;100.00
60874;BME280;46715;40.642;-7.920;2022-10-31T10:38:53;96093.88;;;14.94;100.00
60874;BME280;46715;40.642;-7.920;2022-10-31T10:40:55;96109.44;;;14.90;100.00
60874;BME280;46715;40.642;-7.920;2022-10-31T10:43:18;96098.47;;;14.88;100.00
60874;BME280;46715;40.642;-7.920;2022-10-31T10:45:21;96096.31;;;14.90;100.00
60874;BME280;46715;40.642;-7.920;2022-10-31T10:47:48;96097.22;;;14.86;100.00
60874;BME280;46715;40.642;-7.920;2022-10-31T10:49:52;96104.78;;;14.87;100.00
60874;BME280;46715;40.642;-7.920;2022-10-31T10:52:01;96106.75;;;14.81;100.00
60874;BME280;46715;40.642;-7.920;2022-10-31T10:56:26;96115.44;;;14.91;100.00
60874;BME280;46715;40.642;-7.920;2022-10-31T10:58:31;96116.56;;;14.90;100.00
60874;BME280;46715;40.642;-7.920;2022-10-31T11:00:38;96119.94;;;14.90;100.00
60874;BME280;46715;40.642;-7.920;2022-10-31T11:02:40;96118.56;;;14.93;100.00
60874;BME280;46715;40.642;-7.920;2022-10-31T11:04:42;96111.34;;;14.98;100.00
60874;BME280;46715;40.642;-7.920;2022-10-31T11:06:42;96125.63;;;15.06;100.00
60874;BME280;46715;40.642;-7.920;2022-10-31T11:08:43;96114.81;;;15.08;100.00
60874;BME280;46715;40.642;-7.920;2022-10-31T11:10:44;96112.50;;;15.06;100.00
60874;BME280;46715;40.642;-7.920;2022-10-31T11:13:01;96119.22;;;15.21;100.00
60874;BME280;46715;40.642;-7.920;2022-10-31T11:15:20;96132.41;;;15.30;100.00
60874;BME280;46715;40.642;-7.920;2022-10-31T11:17:28;96131.22;;;15.36;100.00
60874;BME280;46715;40.642;-7.920;2022-10-31T11:19:29;96133.00;;;15.49;100.00
60874;BME280;46715;40.642;-7.920;2022-10-31T11:21:32;96135.47;;;15.55;100.00
60874;BME280;46715;40.642;-7.920;2022-10-31T11:23:35;96138.59;;;15.57;100.00
60874;BME280;46715;40.642;-7.920;2022-10-31T11:25:35;96140.19;;;15.66;100.00
60874;BME280;46715;40.642;-7.920;2022-10-31T11:27:36;96139.22;;;15.62;100.00
60874;BME280;46715;40.642;-7.920;2022-10-31T11:29:37;96135.69;;;15.67;100.00
60874;BME280;46715;40.642;-7.920;2022-10-31T11:31:38;96132.00;;;15.68;100.00
60874;BME280;46715;40.642;-7.920;2022-10-31T11:35:47;96133.88;;;15.76;100.00
60874;BME280;46715;40.642;-7.920;2022-10-31T11:37:51;96129.63;;;15.89;100.00
60874;BME280;46715;40.642;-7.920;2022-10-31T11:39:55;96135.41;;;16.09;100.00
60874;BME280;46715;40.642;-7.920;2022-10-31T11:42:00;96135.00;;;16.24;100.00
60874;BME280;46715;40.642;-7.920;2022-10-31T11:44:14;96132.69;;;16.31;100.00
60874;BME280;46715;40.642;-7.920;2022-10-31T11:46:37;96139.22;;;16.43;100.00
60874;BME280;46715;40.642;-7.920;2022-10-31T11:48:38;96118.47;;;16.59;100.00
60874;BME280;46715;40.642;-7.920;2022-10-31T11:50:41;96134.88;;;16.56;100.00
60874;BME280;46715;40.642;-7.920;2022-10-31T11:52:42;96137.84;;;16.72;100.00
60874;BME280;46715;40.642;-7.920;2022-10-31T11:56:51;96126.53;;;16.71;100.00
60874;BME280;46715;40.642;-7.920;2022-10-31T12:00:58;96133.84;;;16.74;100.00